Time;durP1;ratioP1;P1;durP2;ratioP2;P2;SDS_P1;SDS_P2;PMS_P1;PMS_P2;Temp;Humidity;BMP_temperature;BMP_pressure;BME280_temperature;BME280_humidity;BME280_pressure;Samples;Min_cycle;Max_cycle;Signal;HPM_P1;HPM_P2
2022/07/22 00:01:05;;;;;;;7.30;1.98;;;;;;;30.72;20.33;98731.00;4503171;31;20110;-82
2022/07/22 00:03:31;;;;;;;5.82;1.83;;;;;;;30.71;20.47;98742.97;4503283;31;20115;-82
2022/07/22 00:05:56;;;;;;;5.07;1.90;;;;;;;30.66;20.58;98734.59;4503234;31;20116;-82
2022/07/22 00:08:21;;;;;;;5.62;1.70;;;;;;;30.66;20.47;98739.22;4503059;31;20110;-82
2022/07/22 00:10:47;;;;;;;7.07;2.00;;;;;;;30.65;20.57;98738.34;4503173;31;20084;-82
2022/07/22 00:13:12;;;;;;;6.00;2.00;;;;;;;30.67;20.38;98733.53;4502371;31;20112;-83
2022/07/22 00:15:38;;;;;;;7.43;1.92;;;;;;;30.62;20.45;98727.94;4488621;31;20108;-83
2022/07/22 00:18:03;;;;;;;4.90;1.70;;;;;;;30.59;20.44;98728.34;4503115;31;20428;-83
2022/07/22 00:20:29;;;;;;;5.00;1.77;;;;;;;30.58;20.40;98738.41;4488691;31;20139;-83
2022/07/22 00:22:54;;;;;;;6.28;1.70;;;;;;;30.56;20.45;98726.06;4503016;31;20142;-83
2022/07/22 00:25:20;;;;;;;6.05;1.67;;;;;;;30.52;20.52;98736.53;4503061;31;20132;-82
2022/07/22 00:27:45;;;;;;;6.00;1.80;;;;;;;30.52;20.43;98732.97;4503080;31;20088;-83
2022/07/22 00:30:11;;;;;;;7.20;2.05;;;;;;;30.53;20.30;98732.75;4488714;31;20131;-83
2022/07/22 00:32:36;;;;;;;4.28;1.60;;;;;;;30.49;20.25;98731.53;4503022;31;20091;-83
2022/07/22 00:35:02;;;;;;;7.78;1.80;;;;;;;30.44;20.32;98741.38;4502943;31;20096;-83
2022/07/22 00:37:28;;;;;;;6.93;1.80;;;;;;;30.46;20.50;98733.81;4503101;31;20379;-83
2022/07/22 00:39:53;;;;;;;7.15;1.70;;;;;;;30.45;20.46;98729.47;4488471;31;20143;-83
2022/07/22 00:42:18;;;;;;;6.05;1.98;;;;;;;30.40;20.48;98730.06;4503023;31;20103;-83
2022/07/22 00:44:45;;;;;;;6.50;2.03;;;;;;;30.37;20.58;98733.25;4488570;31;20092;-83
2022/07/22 00:47:11;;;;;;;8.45;1.90;;;;;;;30.34;20.54;98730.94;4502882;31;20088;-83
2022/07/22 00:49:37;;;;;;;6.47;1.77;;;;;;;30.32;20.49;98730.31;4475409;31;20130;-83
2022/07/22 00:52:04;;;;;;;5.82;1.90;;;;;;;30.28;20.46;98735.31;4502739;31;20776;-83
2022/07/22 00:54:29;;;;;;;5.18;1.85;;;;;;;30.28;20.43;98737.19;4502931;31;20091;-83
2022/07/22 00:56:55;;;;;;;8.07;1.77;;;;;;;30.30;20.43;98740.53;4502800;31;20105;-83
2022/07/22 00:59:20;;;;;;;4.30;1.60;;;;;;;30.25;20.53;98740.31;4502825;31;20159;-83
2022/07/22 01:01:46;;;;;;;7.20;1.95;;;;;;;30.12;21.15;98749.34;4502857;31;20088;-83
2022/07/22 01:04:12;;;;;;;8.50;1.98;;;;;;;29.64;21.36;98744.13;4502848;31;20104;-83
2022/07/22 01:06:37;;;;;;;5.00;1.70;;;;;;;29.81;21.38;98750.84;4488397;31;20484;-83
2022/07/22 01:09:03;;;;;;;4.62;1.70;;;;;;;29.79;21.60;98752.94;4502741;31;20142;-83
2022/07/22 01:11:28;;;;;;;5.30;1.60;;;;;;;29.82;21.92;98751.66;4502670;31;20138;-83
2022/07/22 01:13:55;;;;;;;7.47;2.10;;;;;;;29.81;22.03;98750.84;4502903;31;20095;-82
2022/07/22 01:16:21;;;;;;;6.00;1.62;;;;;;;29.79;22.00;98756.47;4502554;31;20109;-82
2022/07/22 01:18:46;;;;;;;5.65;1.60;;;;;;;29.79;22.03;98751.03;4502576;31;20096;-82
2022/07/22 01:21:13;;;;;;;5.85;1.85;;;;;;;29.80;21.85;98751.87;4502700;31;20092;-82
2022/07/22 01:23:39;;;;;;;6.35;1.87;;;;;;;29.77;21.71;98753.13;4487957;31;20178;-82
2022/07/22 01:26:05;;;;;;;5.30;1.50;;;;;;;29.77;21.69;98750.41;4502631;31;20110;-82
2022/07/22 01:28:31;;;;;;;6.32;1.83;;;;;;;29.78;21.31;98745.81;4502477;31;20154;-82
2022/07/22 01:30:56;;;;;;;6.50;1.80;;;;;;;29.74;21.46;98745.38;4502644;31;20107;-82
2022/07/22 01:33:23;;;;;;;6.18;1.83;;;;;;;29.73;21.63;98748.34;4474996;31;20155;-82
2022/07/22 01:35:48;;;;;;;5.65;1.70;;;;;;;29.71;21.61;98744.94;4502363;31;20396;-82
2022/07/22 01:38:14;;;;;;;9.63;1.77;;;;;;;29.69;21.65;98747.03;4488084;31;20105;-82
2022/07/22 01:40:41;;;;;;;5.90;1.98;;;;;;;29.67;21.69;98738.25;4502486;31;20470;-82
2022/07/22 01:43:06;;;;;;;7.00;1.58;;;;;;;29.66;21.74;98742.84;4502434;31;20134;-82
2022/07/22 01:45:31;;;;;;;6.78;1.87;;;;;;;29.64;21.70;98742.22;4487942;31;20355;-82
2022/07/22 01:47:58;;;;;;;5.28;1.70;;;;;;;29.66;21.52;98736.59;4502291;31;20100;-83
2022/07/22 01:50:24;;;;;;;6.80;2.00;;;;;;;29.71;21.30;98732.22;4502359;31;20144;-82
2022/07/22 01:52:49;;;;;;;5.70;2.00;;;;;;;29.63;21.42;98737.00;4487954;31;20103;-83
2022/07/22 01:55:15;;;;;;;4.45;1.77;;;;;;;29.70;21.31;98732.41;4487617;31;20106;-83
2022/07/22 01:57:40;;;;;;;6.15;1.60;;;;;;;29.65;21.37;98738.50;4502222;31;20131;-83
2022/07/22 02:00:07;;;;;;;5.50;1.73;;;;;;;29.65;21.32;98735.78;4487824;31;20447;-83
2022/07/22 02:02:33;;;;;;;6.05;1.75;;;;;;;29.60;21.48;98730.94;4502148;31;20138;-82
2022/07/22 02:04:58;;;;;;;8.50;1.90;;;;;;;29.60;21.53;98736.37;4487687;31;20096;-82
2022/07/22 02:07:25;;;;;;;6.32;2.10;;;;;;;29.63;21.48;98732.41;4501980;31;20433;-83
2022/07/22 02:09:51;;;;;;;6.15;1.65;;;;;;;29.53;21.66;98727.38;4502140;31;20164;-82
2022/07/22 02:12:17;;;;;;;6.80;1.85;;;;;;;29.53;21.76;98732.81;4502048;31;20091;-83
2022/07/22 02:14:43;;;;;;;5.70;1.77;;;;;;;29.53;21.85;98745.56;4501957;31;20462;-82
2022/07/22 02:17:08;;;;;;;4.45;1.62;;;;;;;29.52;21.85;98735.75;4501835;31;20091;-83
2022/07/22 02:19:34;;;;;;;5.78;1.70;;;;;;;29.54;21.78;98741.81;4501868;31;20100;-83
2022/07/22 02:21:59;;;;;;;5.12;1.75;;;;;;;29.50;21.88;98746.81;4501502;31;20108;-83
2022/07/22 02:24:25;;;;;;;6.18;1.73;;;;;;;29.47;21.98;98752.66;4501876;31;20080;-82
2022/07/22 02:26:50;;;;;;;7.40;1.98;;;;;;;29.45;22.11;98745.75;4501730;31;20767;-83
2022/07/22 02:29:15;;;;;;;7.25;1.77;;;;;;;29.44;22.02;98754.94;4501805;31;20105;-83
2022/07/22 02:31:41;;;;;;;5.87;1.67;;;;;;;29.46;21.90;98756.41;4501694;31;20161;-83
2022/07/22 02:34:07;;;;;;;6.30;1.60;;;;;;;29.44;22.36;98754.94;4501700;31;20076;-83
2022/07/22 02:36:32;;;;;;;5.28;1.75;;;;;;;29.38;22.47;98756.59;4503488;31;20123;-83
2022/07/22 02:38:58;;;;;;;5.95;2.03;;;;;;;29.32;22.42;98754.72;4503786;31;20479;-83
2022/07/22 02:41:23;;;;;;;5.57;1.75;;;;;;;29.28;22.51;98761.59;4503770;31;20084;-82
2022/07/22 02:43:50;;;;;;;6.07;1.90;;;;;;;29.26;22.68;98766.37;4503799;31;20438;-83
2022/07/22 02:46:15;;;;;;;6.37;1.70;;;;;;;29.24;22.72;98765.75;4503859;31;20099;-83
2022/07/22 02:48:40;;;;;;;4.75;1.70;;;;;;;29.20;22.83;98760.72;4503870;31;20123;-83
2022/07/22 02:51:06;;;;;;;5.43;1.62;;;;;;;29.28;22.52;98757.00;4503689;31;20083;-83
2022/07/22 02:53:31;;;;;;;6.45;1.85;;;;;;;29.20;22.55;98757.19;4489282;31;20112;-83
2022/07/22 02:55:57;;;;;;;5.90;1.83;;;;;;;29.24;22.25;98763.88;4503574;31;20110;-82
2022/07/22 02:58:23;;;;;;;6.97;1.87;;;;;;;29.17;22.32;98763.88;4476510;31;20105;-82
2022/07/22 03:00:49;;;;;;;6.97;1.80;;;;;;;29.17;22.59;98766.59;4503921;31;20080;-83
2022/07/22 03:03:14;;;;;;;4.78;1.60;;;;;;;29.17;22.64;98763.03;4489688;31;20397;-83
2022/07/22 03:05:39;;;;;;;5.95;2.10;;;;;;;29.13;22.71;98757.19;4503946;31;20092;-83
2022/07/22 03:08:05;;;;;;;8.05;2.10;;;;;;;29.13;22.70;98762.59;4504025;31;20110;-82
2022/07/22 03:10:30;;;;;;;6.22;1.90;;;;;;;29.10;22.75;98760.25;4503843;31;20123;-83
2022/07/22 03:12:56;;;;;;;6.28;1.90;;;;;;;29.13;22.85;98759.03;4489380;31;20084;-83
2022/07/22 03:15:21;;;;;;;9.30;3.00;;;;;;;29.12;23.08;98760.06;4503730;31;20133;-83
2022/07/22 03:17:47;;;;;;;6.05;1.83;;;;;;;29.10;23.24;98765.69;4503837;31;20088;-82
2022/07/22 03:20:12;;;;;;;6.45;1.98;;;;;;;29.10;23.49;98762.97;4503866;31;20114;-82
2022/07/22 03:22:38;;;;;;;5.50;1.98;;;;;;;29.12;23.47;98766.34;4503546;31;20447;-82
2022/07/22 03:25:04;;;;;;;4.95;1.80;;;;;;;29.10;23.56;98762.97;4503722;31;20100;-83
2022/07/22 03:27:29;;;;;;;6.62;1.62;;;;;;;29.13;23.58;98764.47;4503768;31;20447;-83
2022/07/22 03:29:54;;;;;;;5.75;1.87;;;;;;;29.17;23.65;98768.47;4503797;31;20107;-83
2022/07/22 03:32:20;;;;;;;5.93;1.67;;;;;;;29.18;23.82;98772.84;4503776;31;20100;-83
2022/07/22 03:34:45;;;;;;;7.15;1.92;;;;;;;29.24;23.81;98774.72;4503704;31;20474;-83
2022/07/22 03:37:11;;;;;;;6.82;1.80;;;;;;;29.25;23.76;98779.13;4503599;31;20165;-82
2022/07/22 03:39:36;;;;;;;6.37;1.87;;;;;;;29.30;23.67;98778.50;4503763;31;20140;-82
2022/07/22 03:42:02;;;;;;;8.10;2.83;;;;;;;29.40;23.65;98773.53;4489059;31;20115;-82
2022/07/22 03:44:28;;;;;;;6.97;1.87;;;;;;;29.43;23.91;98777.69;4489250;31;20554;-82
2022/07/22 03:46:53;;;;;;;6.60;1.80;;;;;;;29.50;23.70;98775.84;4502396;31;20149;-83
2022/07/22 03:49:19;;;;;;;8.73;2.25;;;;;;;29.55;23.17;98773.31;4503239;31;20084;-83
2022/07/22 03:51:44;;;;;;;6.70;2.15;;;;;;;29.64;23.18;98774.81;4503394;31;20174;-83
2022/07/22 03:54:10;;;;;;;6.10;1.85;;;;;;;29.71;23.08;98775.66;4503290;31;20112;-83
2022/07/22 03:56:35;;;;;;;5.75;1.70;;;;;;;29.82;22.81;98770.66;4503139;31;20144;-82
2022/07/22 03:59:01;;;;;;;6.95;1.87;;;;;;;29.88;22.69;98769.84;4503239;31;20088;-82
2022/07/22 04:01:26;;;;;;;6.37;2.10;;;;;;;29.96;22.75;98767.75;4503245;31;20446;-82
2022/07/22 04:03:52;;;;;;;5.28;1.85;;;;;;;30.06;22.65;98772.75;4503245;31;20491;-82
2022/07/22 04:06:18;;;;;;;5.95;1.80;;;;;;;30.19;22.63;98778.19;4503276;31;20092;-82
2022/07/22 04:08:43;;;;;;;7.65;1.80;;;;;;;30.29;22.49;98771.47;4503110;31;20114;-82
2022/07/22 04:11:08;;;;;;;6.43;2.20;;;;;;;30.41;22.53;98774.44;4488855;31;20088;-83
2022/07/22 04:13:34;;;;;;;5.45;1.85;;;;;;;30.50;22.37;98776.69;4488864;31;20095;-83
2022/07/22 04:15:59;;;;;;;6.32;1.90;;;;;;;30.62;22.43;98766.00;4503098;31;20139;-83
2022/07/22 04:18:25;;;;;;;6.12;2.00;;;;;;;30.73;22.52;98765.34;4503161;31;20100;-83
2022/07/22 04:20:50;;;;;;;7.35;1.80;;;;;;;30.84;22.47;98774.69;4503040;31;20509;-82
2022/07/22 04:23:16;;;;;;;8.65;1.98;;;;;;;30.96;22.42;98764.00;4502968;31;20095;-82
2022/07/22 04:25:42;;;;;;;7.78;2.30;;;;;;;31.08;22.80;98772.31;4503110;31;20436;-82
2022/07/22 04:28:07;;;;;;;6.22;1.95;;;;;;;31.16;24.42;98775.63;4503013;31;20091;-82
2022/07/22 04:30:32;;;;;;;6.87;1.95;;;;;;;31.25;24.91;98765.31;4503114;31;20417;-82
2022/07/22 04:32:58;;;;;;;8.57;2.22;;;;;;;31.36;24.20;98769.22;4503034;31;20100;-83
2022/07/22 04:35:24;;;;;;;7.55;2.30;;;;;;;31.46;24.50;98766.06;4502895;31;20405;-83
2022/07/22 04:37:50;;;;;;;8.80;2.35;;;;;;;31.58;24.34;98760.75;4503039;31;20117;-83
2022/07/22 04:40:15;;;;;;;8.00;2.15;;;;;;;31.77;23.33;98762.47;4502992;31;20111;-83
2022/07/22 04:42:41;;;;;;;9.55;2.25;;;;;;;31.86;22.77;98763.03;4503108;31;20132;-83
2022/07/22 04:45:06;;;;;;;6.43;2.30;;;;;;;32.03;22.85;98766.09;4488433;31;20392;-82
2022/07/22 04:47:32;;;;;;;6.90;2.03;;;;;;;32.18;22.35;98761.13;4502839;31;20118;-83
2022/07/22 04:49:57;;;;;;;7.15;1.70;;;;;;;32.42;20.91;98762.12;4502920;31;20088;-83
2022/07/22 04:52:23;;;;;;;5.70;1.80;;;;;;;32.52;20.49;98761.59;4502909;31;20373;-83
2022/07/22 04:54:48;;;;;;;6.55;1.80;;;;;;;32.58;20.41;98759.88;4502966;31;20386;-83
2022/07/22 04:57:13;;;;;;;6.20;1.80;;;;;;;32.67;19.23;98763.97;4502691;31;20092;-83
2022/07/22 04:59:39;;;;;;;5.60;2.17;;;;;;;32.87;18.89;98761.81;4502444;31;20080;-83
2022/07/22 05:02:04;;;;;;;7.07;2.12;;;;;;;32.89;19.56;98764.31;4502943;31;20139;-83
2022/07/22 05:04:30;;;;;;;7.60;2.20;;;;;;;33.03;21.24;98770.44;4502840;31;20096;-82
2022/07/22 05:06:55;;;;;;;6.97;2.10;;;;;;;33.12;21.85;98768.28;4488458;31;20152;-83
2022/07/22 05:09:21;;;;;;;5.87;1.98;;;;;;;33.10;21.56;98765.78;4502706;31;20176;-83
2022/07/22 05:11:46;;;;;;;10.20;2.20;;;;;;;33.23;21.36;98770.22;4502609;31;20130;-83
2022/07/22 05:14:12;;;;;;;9.20;2.00;;;;;;;33.44;21.33;98764.25;4502686;31;20159;-83
2022/07/22 05:16:37;;;;;;;9.82;1.90;;;;;;;33.45;20.32;98767.78;4488364;31;20358;-83
2022/07/22 05:19:04;;;;;;;6.68;1.80;;;;;;;33.54;19.00;98765.56;4502556;31;20072;-83
2022/07/22 05:21:30;;;;;;;5.60;1.98;;;;;;;33.79;20.98;98771.72;4502706;31;20673;-83
2022/07/22 05:23:55;;;;;;;5.15;1.55;;;;;;;33.87;19.90;98773.25;4502508;31;20088;-83
2022/07/22 05:26:20;;;;;;;6.78;2.10;;;;;;;33.87;19.76;98774.09;4502585;31;20136;-83
2022/07/22 05:28:46;;;;;;;5.68;1.98;;;;;;;34.21;19.07;98779.00;4496778;31;20438;-82
2022/07/22 05:31:11;;;;;;;7.75;2.08;;;;;;;34.17;18.14;98775.09;4475456;32;20139;-83
2022/07/22 05:33:37;;;;;;;7.82;2.30;;;;;;;34.34;19.08;98776.03;4486744;32;20127;-82
2022/07/22 05:36:03;;;;;;;7.30;2.20;;;;;;;34.60;18.53;98780.19;4472400;32;20157;-83
2022/07/22 05:38:28;;;;;;;4.90;1.90;;;;;;;34.79;18.27;98780.03;4486809;32;20113;-82
2022/07/22 05:40:53;;;;;;;5.55;1.75;;;;;;;34.76;19.29;98781.37;4486715;32;20104;-81
2022/07/22 05:43:19;;;;;;;5.43;1.90;;;;;;;34.88;18.36;98783.25;4486643;32;20363;-82
2022/07/22 05:45:44;;;;;;;6.70;2.03;;;;;;;35.03;17.80;98778.09;4472387;32;20100;-80
2022/07/22 05:48:13;;;;;;;7.10;1.90;;;;;;;35.27;17.14;98778.00;4486889;32;20105;-81
2022/07/22 05:50:38;;;;;;;7.18;2.22;;;;;;;35.23;18.09;98781.25;4486776;32;20166;-82
2022/07/22 05:53:04;;;;;;;7.25;2.17;;;;;;;35.38;17.97;98782.59;4472518;32;20148;-84
2022/07/22 05:55:29;;;;;;;5.57;1.80;;;;;;;35.17;17.47;98789.59;4486554;32;20104;-81
2022/07/22 05:57:55;;;;;;;7.22;2.40;;;;;;;35.22;17.57;98793.28;4486709;32;20353;-80
2022/07/22 06:00:20;;;;;;;7.07;2.20;;;;;;;35.27;17.33;98784.31;4485402;31;20093;-82
2022/07/22 06:02:45;;;;;;;6.97;1.83;;;;;;;35.23;17.68;98796.84;4495017;31;20110;-81
2022/07/22 06:05:11;;;;;;;6.47;2.17;;;;;;;35.22;17.75;98781.50;4488871;31;20146;-87
2022/07/22 06:07:36;;;;;;;7.85;2.12;;;;;;;35.44;17.22;98787.91;4488205;31;20123;-81
2022/07/22 06:10:02;;;;;;;9.38;2.17;;;;;;;35.36;17.76;98791.06;4493102;31;20100;-82
2022/07/22 06:12:28;;;;;;;7.80;2.20;;;;;;;35.38;17.90;98793.56;4488271;31;20522;-83
2022/07/22 06:14:53;;;;;;;7.78;1.92;;;;;;;35.38;17.75;98799.03;4499676;31;20148;-82
2022/07/22 06:17:19;;;;;;;8.77;2.00;;;;;;;35.32;17.39;98792.62;4490613;31;20104;-83
2022/07/22 06:19:44;;;;;;;6.70;2.20;;;;;;;35.32;18.21;98794.56;4499763;31;20108;-82
2022/07/22 06:22:10;;;;;;;7.73;2.10;;;;;;;35.36;18.22;98791.06;4487996;31;20100;-82
2022/07/22 06:24:35;;;;;;;5.53;2.20;;;;;;;35.47;17.87;98791.28;4491143;31;20439;-82
2022/07/22 06:27:01;;;;;;;8.43;2.12;;;;;;;35.38;17.57;98797.13;4493245;31;20474;-82
2022/07/22 06:29:26;;;;;;;9.10;2.10;;;;;;;35.62;17.59;98799.75;4494182;31;20092;-83
2022/07/22 06:31:52;;;;;;;6.10;1.98;;;;;;;35.73;17.47;98792.56;4493263;31;20119;-82
2022/07/22 06:34:17;;;;;;;8.13;2.50;;;;;;;35.99;16.14;98791.94;4493932;31;20147;-82
2022/07/22 06:36:42;;;;;;;7.97;2.00;;;;;;;36.01;16.72;98786.19;4487617;32;20092;-83
2022/07/22 06:39:08;;;;;;;7.57;3.13;;;;;;;35.93;16.82;98783.84;4481048;31;20104;-83
2022/07/22 06:41:33;;;;;;;11.80;2.47;;;;;;;35.97;16.92;98790.53;4488728;31;20092;-82
2022/07/22 06:43:59;;;;;;;10.25;2.30;;;;;;;36.06;16.93;98793.66;4482654;31;20148;-82
2022/07/22 06:46:24;;;;;;;7.75;2.30;;;;;;;36.23;16.79;98794.50;4487890;31;20084;-82
2022/07/22 06:48:49;;;;;;;9.33;2.50;;;;;;;36.50;16.55;98791.88;4488199;32;20116;-83
2022/07/22 06:51:15;;;;;;;5.93;2.17;;;;;;;36.52;16.63;98789.72;4488253;31;20103;-82
2022/07/22 06:53:41;;;;;;;8.73;2.43;;;;;;;36.75;16.45;98791.44;4486990;32;20107;-82
2022/07/22 06:56:07;;;;;;;7.33;2.30;;;;;;;36.85;16.62;98789.91;4487958;31;20149;-83
2022/07/22 06:58:32;;;;;;;8.20;2.47;;;;;;;37.06;16.58;98791.81;4497707;31;20173;-83
2022/07/22 07:00:58;;;;;;;11.13;2.47;;;;;;;36.99;16.07;98792.00;4503689;31;20118;-82
2022/07/22 07:03:25;;;;;;;7.60;2.33;;;;;;;37.05;16.42;98792.06;4503790;31;20492;-82
2022/07/22 07:05:50;;;;;;;9.98;2.17;;;;;;;36.97;16.14;98779.59;4501537;31;20703;-82
2022/07/22 07:08:16;;;;;;;8.97;2.80;;;;;;;37.02;16.28;98779.69;4500525;31;20108;-82
2022/07/22 07:10:41;;;;;;;8.93;2.37;;;;;;;36.72;16.67;98780.97;4486235;31;20108;-81
2022/07/22 07:13:07;;;;;;;9.57;2.30;;;;;;;36.61;16.24;98774.47;4502457;31;20138;-81
2022/07/22 07:15:32;;;;;;;7.93;2.40;;;;;;;36.57;16.66;98776.06;4489048;31;20088;-82
2022/07/22 07:17:58;;;;;;;9.53;2.50;;;;;;;36.56;16.42;98781.81;4502992;31;20333;-81
2022/07/22 07:20:24;;;;;;;8.70;2.40;;;;;;;36.55;16.56;98780.16;4488919;31;20100;-83
2022/07/22 07:22:51;;;;;;;17.90;2.85;;;;;;;36.66;16.45;98783.88;4503119;31;20371;-82
2022/07/22 07:25:16;;;;;;;21.65;2.90;;;;;;;36.52;16.52;98786.16;4503352;31;20116;-81
2022/07/22 07:27:42;;;;;;;9.33;2.00;;;;;;;36.55;16.46;98782.91;4503621;31;20092;-82
2022/07/22 07:30:09;;;;;;;14.67;2.40;;;;;;;36.71;15.97;98784.78;4482896;31;20093;-81
2022/07/22 07:32:35;;;;;;;6.25;1.73;;;;;;;36.78;15.86;98784.62;4486971;31;20117;-81
2022/07/22 07:35:02;;;;;;;5.47;1.80;;;;;;;36.89;15.03;98777.31;4485960;31;20121;-82
2022/07/22 07:37:27;;;;;;;;;;;;;;;37.18;14.60;98778.78;4483213;31;20187;-82
2022/07/22 07:39:53;;;;;;;5.18;1.77;;;;;;;37.45;14.37;98774.41;4491947;31;20252;-81
2022/07/22 07:42:18;;;;;;;4.50;1.57;;;;;;;37.43;14.44;98773.81;4486800;31;20088;-80
2022/07/22 07:44:43;;;;;;;7.07;1.80;;;;;;;37.71;13.85;98775.50;4497982;31;20092;-80
2022/07/22 07:47:09;;;;;;;6.57;2.30;;;;;;;37.87;13.91;98774.53;4475381;31;20119;-80
2022/07/22 07:49:34;;;;;;;5.93;2.00;;;;;;;38.08;14.33;98772.78;4498850;31;20395;-80
2022/07/22 07:52:00;;;;;;;5.47;1.90;;;;;;;38.13;13.68;98774.72;4493157;31;20095;-81
2022/07/22 07:54:28;;;;;;;8.27;2.23;;;;;;;38.01;13.60;98768.56;4497927;31;20108;-81
2022/07/22 07:56:54;;;;;;;11.63;2.20;;;;;;;37.96;13.61;98778.44;4475565;32;20117;-83
2022/07/22 07:59:19;;;;;;;8.23;2.00;;;;;;;38.08;13.38;98772.78;4497622;31;20457;-81
2022/07/22 08:01:45;;;;;;;7.77;1.87;;;;;;;38.25;13.36;98774.53;4479206;32;20084;-82
2022/07/22 08:04:10;;;;;;;7.87;2.50;;;;;;;38.28;13.27;98774.84;4486599;31;20114;-81
2022/07/22 08:06:36;;;;;;;7.33;1.90;;;;;;;38.29;13.29;98776.50;4496914;31;20501;-82
2022/07/22 08:09:01;;;;;;;4.33;1.73;;;;;;;38.23;13.29;98776.72;4482251;31;20139;-82
2022/07/22 08:11:27;;;;;;;7.30;1.90;;;;;;;38.27;13.01;98775.13;4477130;31;20100;-81
2022/07/22 08:13:52;;;;;;;8.53;1.80;;;;;;;38.29;13.03;98775.69;4471903;32;20270;-84
2022/07/22 08:16:18;;;;;;;7.83;1.73;;;;;;;38.17;12.85;98767.59;4490127;31;20100;-81
2022/07/22 08:18:43;;;;;;;8.67;1.70;;;;;;;38.01;13.35;98765.81;4492322;31;20179;-81
2022/07/22 08:21:09;;;;;;;9.53;1.90;;;;;;;38.01;13.21;98765.81;4489638;31;20096;-81
2022/07/22 08:23:34;;;;;;;8.50;2.03;;;;;;;37.96;13.57;98769.38;4496421;31;20080;-81
2022/07/22 08:26:00;;;;;;;5.77;1.90;;;;;;;38.00;13.51;98770.50;4495344;31;20092;-79
2022/07/22 08:28:25;;;;;;;7.27;2.00;;;;;;;38.06;13.17;98761.19;4502732;31;20148;-81
2022/07/22 08:30:51;;;;;;;4.37;1.60;;;;;;;38.21;13.05;98770.66;4503309;31;20443;-81
2022/07/22 08:33:17;;;;;;;5.23;1.87;;;;;;;38.03;13.38;98764.47;4480930;31;20114;-80
2022/07/22 08:35:42;;;;;;;5.97;2.00;;;;;;;38.04;13.56;98774.37;4493216;31;20543;-80
2022/07/22 08:38:07;;;;;;;6.03;2.00;;;;;;;38.11;13.49;98769.53;4492718;31;20199;-81
2022/07/22 08:40:33;;;;;;;6.63;1.90;;;;;;;38.18;13.57;98773.97;4479621;31;20084;-81
2022/07/22 08:43:02;;;;;;;7.27;2.37;;;;;;;38.16;13.72;98775.03;4489989;31;20084;-80
2022/07/22 08:45:29;;;;;;;6.12;2.00;;;;;;;38.12;13.90;98770.34;4480798;31;20180;-80
2022/07/22 08:47:54;;;;;;;8.15;1.90;;;;;;;38.20;13.87;98766.28;4478168;32;20104;-80
2022/07/22 08:50:20;;;;;;;8.13;1.90;;;;;;;37.96;13.98;98766.63;4487229;32;20426;-79
2022/07/22 08:52:45;;;;;;;8.37;2.30;;;;;;;37.96;14.32;98777.62;4472740;32;20131;-79
2022/07/22 08:55:11;;;;;;;8.57;2.30;;;;;;;37.71;14.08;98776.31;4486756;32;20193;-82
2022/07/22 08:57:37;;;;;;;12.00;2.60;;;;;;;37.79;14.52;98763.19;4472396;32;20104;-82
2022/07/22 09:00:10;;;;;;;8.70;2.20;;;;;;;37.83;14.73;98776.16;4472353;31;20134;-81
2022/07/22 09:02:40;;;;;;;9.77;2.30;;;;;;;37.87;14.14;98773.69;4487139;32;20558;-82
2022/07/22 09:05:09;;;;;;;6.53;2.20;;;;;;;37.86;14.66;98777.53;4472041;32;20168;-80
2022/07/22 09:07:41;;;;;;;7.50;2.33;;;;;;;38.01;14.69;98771.31;4486504;32;20164;-81
2022/07/22 09:10:08;;;;;;;7.72;2.83;;;;;;;37.94;14.58;98774.31;4486481;31;20163;-82
2022/07/22 09:12:34;;;;;;;12.48;2.70;;;;;;;37.95;14.62;98767.72;4486362;31;20115;-81
2022/07/22 09:15:01;;;;;;;10.90;2.60;;;;;;;37.91;14.52;98755.59;4486842;32;20149;-81
2022/07/22 09:17:29;;;;;;;8.32;2.37;;;;;;;37.82;14.83;98768.97;4486474;32;20108;-81
2022/07/22 09:19:59;;;;;;;8.50;2.65;;;;;;;37.60;15.29;98759.97;4471924;32;20084;-82
2022/07/22 09:22:35;;;;;;;9.77;2.83;;;;;;;37.55;15.47;98760.75;4471836;32;20092;-81
2022/07/22 09:25:32;;;;;;;10.18;2.80;;;;;;;37.59;15.54;98764.63;4486741;32;20084;-79
2022/07/22 09:28:06;;;;;;;11.18;2.80;;;;;;;37.70;15.38;98747.16;4486671;32;20448;-81
2022/07/22 09:30:36;;;;;;;8.45;2.90;;;;;;;37.58;15.79;98755.56;4486210;32;20140;-80
2022/07/22 09:33:02;;;;;;;8.60;2.58;;;;;;;37.42;15.80;98756.50;4486383;31;20118;-81
2022/07/22 09:35:27;;;;;;;8.52;2.53;;;;;;;37.46;15.67;98751.34;4486125;32;20120;-81
2022/07/22 09:38:01;;;;;;;11.23;2.60;;;;;;;37.46;15.52;98754.09;4486121;32;20114;-81
2022/07/22 09:40:32;;;;;;;8.93;2.80;;;;;;;37.35;15.75;98759.47;4472356;32;20423;-84
2022/07/22 09:43:03;;;;;;;10.38;2.80;;;;;;;37.24;15.90;98754.12;4486095;32;20454;-82
2022/07/22 09:45:30;;;;;;;8.13;2.47;;;;;;;37.21;16.29;98752.72;4472251;32;20156;-80
2022/07/22 09:47:57;;;;;;;9.80;3.25;;;;;;;37.16;16.67;98760.91;4485987;31;20444;-79
2022/07/22 09:50:25;;;;;;;8.88;3.15;;;;;;;37.32;16.61;98756.41;4486133;32;20088;-80
2022/07/22 09:52:53;;;;;;;9.00;2.92;;;;;;;37.29;16.71;98752.25;4472273;32;20447;-81
2022/07/22 09:55:20;;;;;;;9.52;3.03;;;;;;;37.08;16.78;98740.19;4486298;32;20470;-80
2022/07/22 09:57:46;;;;;;;10.43;3.33;;;;;;;37.06;17.00;98744.28;4486144;32;20410;-79
2022/07/22 10:00:13;;;;;;;7.47;2.80;;;;;;;36.93;17.20;98748.25;4471958;31;20122;-79
2022/07/22 10:02:56;;;;;;;10.70;3.12;;;;;;;36.98;16.96;98746.41;4486285;32;20474;-79
2022/07/22 10:05:24;;;;;;;9.35;2.72;;;;;;;36.91;17.02;98743.03;4486844;31;20610;-79
2022/07/22 10:07:50;;;;;;;12.85;3.45;;;;;;;36.88;17.29;98740.00;4474943;31;20139;-80
2022/07/22 10:10:19;;;;;;;10.53;3.40;;;;;;;36.78;17.39;98735.22;4492022;31;20471;-80
2022/07/22 10:12:47;;;;;;;12.13;3.85;;;;;;;36.98;17.58;98740.09;4497537;31;20194;-85
2022/07/22 10:15:13;;;;;;;14.85;4.47;;;;;;;36.86;18.00;98729.25;4501723;31;20439;-87
2022/07/22 10:17:41;;;;;;;12.60;3.43;;;;;;;36.84;18.83;98738.81;4501115;31;20091;-90
2022/07/22 10:20:08;;;;;;;13.55;4.12;;;;;;;36.84;18.29;98734.19;4501667;31;20088;-86
2022/07/22 10:22:40;;;;;;;10.27;3.55;;;;;;;36.80;18.13;98722.88;4485828;31;20240;-80
2022/07/22 10:25:06;;;;;;;10.45;4.03;;;;;;;36.79;18.92;98720.37;4501444;31;20136;-82
2022/07/22 10:27:59;;;;;;;7.93;3.75;;;;;;;36.73;19.24;98724.97;4487127;31;20147;-81
2022/07/22 10:30:40;;;;;;;9.30;3.78;;;;;;;36.85;19.32;98724.84;4483481;31;20108;-81
2022/07/22 10:33:12;;;;;;;10.25;3.80;;;;;;;36.74;19.49;98723.06;4501250;31;20077;-84
2022/07/22 10:35:54;;;;;;;11.77;3.75;;;;;;;36.78;18.97;98722.31;4501069;31;20440;-80
2022/07/22 10:38:21;;;;;;;11.93;4.30;;;;;;;36.72;18.78;98727.97;4501241;31;20114;-83
2022/07/22 10:41:03;;;;;;;10.93;4.00;;;;;;;36.69;19.12;98723.00;4501380;31;20084;-82
2022/07/22 10:43:30;;;;;;;10.38;3.75;;;;;;;36.83;18.69;98720.69;4501501;31;20080;-85
2022/07/22 10:46:02;;;;;;;20.48;5.05;;;;;;;36.76;18.51;98713.50;4501381;31;20432;-86
2022/07/22 10:48:36;;;;;;;10.98;3.72;;;;;;;36.54;19.11;98709.88;4501572;31;20088;-91
2022/07/22 10:51:06;;;;;;;11.45;4.30;;;;;;;36.46;19.34;98707.59;4501036;31;20096;-85
2022/07/22 10:53:52;;;;;;;10.13;4.22;;;;;;;36.51;19.50;98715.88;4497858;31;20092;-85
2022/07/22 10:56:38;;;;;;;10.05;3.75;;;;;;;36.54;19.23;98705.22;4486252;32;20167;-86
2022/07/22 10:59:15;;;;;;;10.85;4.37;;;;;;;36.56;19.49;98704.97;4473859;32;20126;-83
2022/07/22 11:01:46;;;;;;;11.63;4.40;;;;;;;36.64;19.93;98707.25;4487495;31;20237;-84
2022/07/22 11:04:14;;;;;;;15.02;4.40;;;;;;;36.55;19.94;98695.91;4487469;32;20084;-85
2022/07/22 11:06:40;;;;;;;11.12;4.20;;;;;;;36.78;19.80;98694.84;4487396;31;20096;-84
2022/07/22 11:09:11;;;;;;;11.13;4.27;;;;;;;36.66;19.96;98696.06;4487426;31;20088;-85
2022/07/22 11:11:44;;;;;;;10.60;3.80;;;;;;;36.71;19.68;98688.72;4487935;32;20085;-88
2022/07/22 11:14:31;;;;;;;12.68;4.25;;;;;;;36.82;19.29;98688.81;4487303;31;20367;-83
2022/07/22 11:17:08;;;;;;;11.85;4.18;;;;;;;36.91;18.95;98685.38;4487425;32;20092;-84
2022/07/22 11:19:37;;;;;;;9.85;3.92;;;;;;;36.88;19.53;98679.59;4483931;31;106291;-82
2022/07/22 11:22:05;;;;;;;11.00;4.00;;;;;;;36.90;19.85;98672.75;4487175;31;20163;-84
2022/07/22 11:24:33;;;;;;;11.82;3.83;;;;;;;36.91;19.82;98679.88;4487705;32;20428;-85
2022/07/22 11:26:59;;;;;;;11.85;4.25;;;;;;;36.96;19.18;98687.34;4487284;32;20124;-85
2022/07/22 11:29:30;;;;;;;12.73;4.10;;;;;;;37.12;19.12;98678.16;4487451;31;20114;-94